Terminal Aerodrome Forecast
Issued by NWS

Home | Current Version | Previous Version | Text Only | Print | Product List | Glossary On
Versions: 1 2 3 4 5 6 7 8 9 10 11 12 13 14 15 16 17 18
000
FTAK31 PAJN 180539
TAFAKT
TAF
PAKT 180539Z 1806/1906 15005KT P6SM -RA SCT025 OVC040 WS020/11035KT
     FM180800 15008KT 6SM -SHRA BR OVC030 WS020/12035KT
     FM181400 15006KT P6SM VCSH OVC040
     FM182200 VRB05KT P6SM BKN050
      AMD LTD TO CLD VIS AND WIND 1806/1815=

USA.gov is the U.S. government's official web portal to all federal, state and local government web resources and services.